Jabbeke, Belgium
Current Conditions -  °F | °C
As of 8:50 AM on Friday 24 Oct 2014 (Local Time) from EBOS Reporting Station
Moderate Rain Moderate Rain  
Wind Chill: 52°   Ceiling: 600
Heat Index: 52°   Visibility: 2mi
Dew Point: 48°   Wind: 12mph
Humidity: 88%   Direction: 180°S
Pressure: 30.06"   Gusts: NA
Location:  51.18°N, 3.09°E
Report Text: EBOS 240650Z 18010KT 3200 RADZ BR SCT003 BKN006 11/09 Q1018 TEMPO 2500 DZRA
Loading
Personal Weather Stations






























Interactive Weather Map
Tropical Storm Tracking
New forecast layout! Learn more

10-Day Weather Forecast

Advertisements
Track Severe Weather on mobile